createdAt,value
2022-09-21T00:01:19.999Z,79.23
2022-09-21T00:03:47.622Z,79.42
2022-09-21T00:06:20.886Z,79.61
2022-09-21T00:08:48.032Z,79.41
2022-09-21T00:11:17.671Z,79.54
2022-09-21T00:13:46.681Z,79.48
2022-09-21T00:16:14.917Z,79.18
2022-09-21T00:18:44.062Z,79.39
2022-09-21T00:21:13.911Z,79.52
2022-09-21T00:23:44.341Z,79.63
2022-09-21T00:26:16.775Z,79.39
2022-09-21T00:28:44.643Z,79.75
2022-09-21T00:31:14.521Z,79.11
2022-09-21T00:33:41.908Z,79.23
2022-09-21T00:36:11.070Z,78.81
2022-09-21T00:38:38.417Z,79.15
2022-09-21T00:41:06.691Z,79.47
2022-09-21T00:44:14.403Z,79.38
2022-09-21T00:46:40.958Z,79.69
2022-09-21T00:49:08.584Z,79.50
2022-09-21T00:51:36.944Z,79.58
2022-09-21T00:54:09.175Z,79.58
2022-09-21T00:56:37.187Z,79.69
2022-09-21T00:59:04.885Z,79.55
2022-09-21T01:01:31.717Z,79.73
2022-09-21T01:03:58.464Z,79.88
2022-09-21T01:06:26.659Z,79.94
2022-09-21T01:08:59.124Z,79.90
2022-09-21T01:11:38.285Z,79.83
2022-09-21T01:14:52.793Z,79.72
2022-09-21T01:17:36.719Z,79.96
2022-09-21T01:20:09.120Z,80.00
2022-09-21T01:22:47.668Z,80.09
2022-09-21T01:25:49.460Z,79.92
2022-09-21T01:28:55.965Z,80.20
2022-09-21T01:31:29.667Z,79.98
2022-09-21T01:34:02.607Z,79.65
2022-09-21T01:36:32.663Z,79.77
2022-09-21T01:39:06.994Z,79.47
2022-09-21T01:41:36.464Z,79.57
2022-09-21T01:44:15.751Z,79.63
2022-09-21T01:46:42.651Z,79.75
2022-09-21T01:49:16.420Z,79.49
2022-09-21T01:51:49.104Z,79.50
2022-09-21T01:54:30.961Z,79.80
2022-09-21T01:57:22.085Z,79.68
2022-09-21T01:59:55.925Z,80.10
2022-09-21T02:02:36.969Z,79.91
2022-09-21T02:05:08.297Z,79.43
2022-09-21T02:07:35.868Z,79.63
2022-09-21T02:10:04.824Z,79.64
2022-09-21T02:12:32.896Z,79.64
2022-09-21T02:15:00.591Z,80.20
2022-09-21T02:17:26.931Z,80.05
2022-09-21T02:20:03.304Z,80.20
2022-09-21T02:23:10.199Z,80.03
2022-09-21T02:26:10.005Z,79.92
2022-09-21T02:28:42.314Z,80.08
2022-09-21T02:31:26.022Z,80.00
2022-09-21T02:34:01.600Z,80.11
2022-09-21T02:36:38.477Z,79.98
2022-09-21T02:39:10.803Z,79.69
2022-09-21T02:41:40.717Z,80.15
2022-09-21T02:45:02.654Z,79.73
2022-09-21T02:47:38.364Z,79.29
2022-09-21T02:50:16.178Z,79.60
2022-09-21T02:52:44.156Z,79.71
2022-09-21T02:55:13.141Z,79.50
2022-09-21T02:57:40.721Z,79.59
2022-09-21T03:00:08.180Z,79.88
2022-09-21T03:02:39.587Z,80.06
2022-09-21T03:05:07.139Z,80.08
2022-09-21T03:07:33.876Z,79.79
2022-09-21T03:10:00.633Z,80.07
2022-09-21T03:12:27.468Z,80.16
2022-09-21T03:14:53.938Z,80.55
2022-09-21T03:17:20.263Z,80.28
2022-09-21T03:19:46.677Z,80.45
2022-09-21T03:22:13.165Z,80.64
2022-09-21T03:24:45.337Z,80.34
2022-09-21T03:27:12.651Z,80.64
2022-09-21T03:29:41.957Z,80.73
2022-09-21T03:32:08.566Z,80.85
2022-09-21T03:34:35.117Z,81.27
2022-09-21T03:37:02.971Z,80.99
2022-09-21T03:39:29.819Z,80.88
2022-09-21T03:41:56.861Z,81.07
2022-09-21T03:44:24.820Z,80.58
2022-09-21T03:46:52.340Z,80.57
2022-09-21T03:49:19.534Z,80.65
2022-09-21T03:51:45.962Z,80.63
2022-09-21T03:54:12.338Z,80.37
2022-09-21T03:56:38.733Z,80.84
2022-09-21T03:59:05.272Z,80.80
2022-09-21T04:01:31.760Z,80.91
2022-09-21T04:03:58.207Z,80.67
2022-09-21T04:06:25.069Z,80.56
2022-09-21T04:08:53.342Z,80.72
2022-09-21T04:11:22.927Z,80.75
2022-09-21T04:13:53.183Z,80.97
2022-09-21T04:16:19.526Z,80.76
2022-09-21T04:18:50.261Z,80.36
2022-09-21T04:21:20.036Z,80.80
2022-09-21T04:23:46.628Z,80.76
2022-09-21T04:26:22.080Z,80.94
2022-09-21T04:28:49.262Z,80.89
2022-09-21T04:31:16.007Z,80.83
2022-09-21T04:33:42.723Z,81.03
2022-09-21T04:36:09.239Z,80.92
2022-09-21T04:38:35.630Z,80.72
2022-09-21T04:41:03.274Z,80.84
2022-09-21T04:43:29.652Z,81.20
2022-09-21T04:45:56.047Z,80.75
2022-09-21T04:48:22.885Z,81.28
2022-09-21T04:50:50.009Z,81.18
2022-09-21T04:53:16.652Z,81.33
2022-09-21T04:55:45.732Z,81.61
2022-09-21T04:58:12.265Z,81.59
2022-09-21T05:00:38.579Z,81.59
2022-09-21T05:03:04.907Z,81.60
2022-09-21T05:05:33.743Z,81.54
2022-09-21T05:08:00.076Z,81.33
2022-09-21T05:10:26.698Z,81.60
2022-09-21T05:12:53.063Z,81.56
2022-09-21T05:15:22.423Z,81.76
2022-09-21T05:17:48.748Z,81.38
2022-09-21T05:20:15.215Z,81.39
2022-09-21T05:22:41.815Z,81.27
2022-09-21T05:25:08.958Z,81.15
2022-09-21T05:27:38.048Z,81.23
2022-09-21T05:30:05.938Z,81.46
2022-09-21T05:32:49.513Z,81.35
2022-09-21T05:35:30.047Z,80.90
2022-09-21T05:38:20.068Z,80.93
2022-09-21T05:40:50.470Z,80.79
2022-09-21T05:43:17.585Z,80.85
2022-09-21T05:45:52.989Z,80.78
2022-09-21T05:48:24.007Z,80.64
2022-09-21T05:51:12.118Z,81.02
2022-09-21T05:54:02.731Z,80.93
2022-09-21T05:56:52.499Z,81.09
2022-09-21T05:59:37.819Z,80.89
2022-09-21T06:02:28.497Z,80.65
2022-09-21T06:04:57.573Z,80.42
2022-09-21T06:07:29.656Z,80.89
2022-09-21T06:09:55.972Z,81.26
2022-09-21T06:12:22.431Z,81.25
2022-09-21T06:14:51.780Z,81.31
2022-09-21T06:17:20.861Z,81.31
2022-09-21T06:19:47.179Z,81.16
2022-09-21T06:22:13.710Z,81.51
2022-09-21T06:24:40.322Z,81.78
2022-09-21T06:27:06.848Z,81.29
2022-09-21T06:29:33.338Z,81.60
2022-09-21T06:31:59.905Z,81.85
2022-09-21T06:34:26.515Z,82.48
2022-09-21T06:36:52.863Z,82.16
2022-09-21T06:39:19.254Z,80.89
2022-09-21T06:41:45.626Z,79.94
2022-09-21T06:44:12.000Z,77.85
2022-09-21T06:46:38.570Z,76.23
2022-09-21T06:49:05.065Z,75.56
2022-09-21T06:51:38.732Z,74.16
2022-09-21T06:54:05.838Z,72.55
2022-09-21T06:56:33.797Z,71.17
2022-09-21T06:59:00.506Z,70.54
2022-09-21T07:01:27.607Z,70.65
2022-09-21T07:03:54.129Z,70.51
2022-09-21T07:06:20.836Z,70.47
2022-09-21T07:11:35.125Z,70.20
2022-09-21T07:14:01.567Z,70.17
2022-09-21T07:16:28.045Z,70.95
2022-09-21T07:18:54.561Z,71.74
2022-09-21T07:21:22.120Z,70.64
2022-09-21T07:23:50.703Z,68.96
2022-09-21T07:26:18.571Z,68.03
2022-09-21T07:28:45.084Z,67.95
2022-09-21T07:31:16.257Z,68.14
2022-09-21T07:33:44.031Z,68.39
2022-09-21T07:36:12.848Z,69.15
2022-09-21T07:38:41.662Z,70.80
2022-09-21T07:41:10.266Z,70.96
2022-09-21T07:43:40.284Z,69.07
2022-09-21T07:46:07.912Z,64.98
2022-09-21T07:48:34.395Z,61.06
2022-09-21T07:51:18.837Z,57.17
2022-09-21T07:53:47.329Z,53.87
2022-09-21T07:56:17.697Z,53.00
2022-09-21T07:59:02.983Z,50.77
2022-09-21T08:01:30.823Z,48.00
2022-09-21T08:04:00.758Z,45.88
2022-09-21T08:06:30.453Z,44.73
2022-09-21T08:08:58.202Z,42.79
2022-09-21T08:11:26.008Z,40.83
2022-09-21T08:13:54.698Z,38.73
2022-09-21T08:16:21.330Z,37.97
2022-09-21T08:18:53.483Z,37.23
2022-09-21T08:21:20.481Z,36.31
2022-09-21T08:23:48.534Z,35.25
2022-09-21T08:26:20.589Z,34.70
2022-09-21T08:28:54.357Z,33.68
2022-09-21T08:31:24.637Z,32.97
2022-09-21T08:33:52.082Z,32.10
2022-09-21T08:36:19.475Z,31.80
2022-09-21T08:38:46.477Z,31.60
2022-09-21T08:41:20.238Z,31.17
2022-09-21T08:43:58.756Z,30.55
2022-09-21T08:46:28.726Z,30.64
2022-09-21T08:49:16.586Z,30.59
2022-09-21T08:51:58.058Z,30.01
2022-09-21T08:54:58.132Z,29.74
2022-09-21T08:57:32.654Z,29.74
2022-09-21T09:00:00.589Z,29.65
2022-09-21T09:02:52.496Z,29.45
2022-09-21T09:05:48.507Z,29.20
2022-09-21T09:08:36.574Z,28.30
2022-09-21T09:11:10.536Z,29.14
2022-09-21T09:14:01.343Z,28.65
2022-09-21T09:16:46.688Z,28.42
2022-09-21T09:19:32.442Z,28.86
2022-09-21T09:22:04.379Z,27.99
2022-09-21T09:24:48.900Z,27.35
2022-09-21T09:27:23.782Z,27.90
2022-09-21T09:30:19.330Z,26.83
2022-09-21T09:32:51.501Z,26.80
2022-09-21T09:35:20.895Z,26.71
2022-09-21T09:37:49.916Z,26.59
2022-09-21T09:40:28.444Z,26.05
2022-09-21T09:43:07.360Z,26.22
2022-09-21T09:45:33.820Z,26.62
2022-09-21T09:48:27.213Z,26.08
2022-09-21T09:50:53.950Z,26.35
2022-09-21T09:53:26.432Z,26.25
2022-09-21T09:55:57.622Z,26.47
2022-09-21T09:58:32.994Z,26.51
2022-09-21T10:00:59.387Z,26.65
2022-09-21T10:03:27.411Z,27.06
2022-09-21T10:05:54.865Z,26.85
2022-09-21T10:08:36.519Z,27.03
2022-09-21T10:11:04.134Z,27.37
2022-09-21T10:13:34.364Z,28.35
2022-09-21T10:16:05.334Z,29.03
2022-09-21T10:18:56.338Z,30.69
2022-09-21T10:21:33.235Z,30.31
2022-09-21T10:24:03.131Z,30.92
2022-09-21T10:26:48.866Z,32.06
2022-09-21T10:29:21.812Z,32.43
2022-09-21T10:32:21.423Z,33.41
2022-09-21T10:35:07.750Z,33.82
2022-09-21T10:37:43.286Z,34.07
2022-09-21T10:40:35.427Z,34.01
2022-09-21T10:43:01.941Z,33.76
2022-09-21T10:45:35.237Z,34.36
2022-09-21T10:48:12.830Z,34.89
2022-09-21T10:50:49.352Z,33.11
2022-09-21T10:53:19.927Z,32.56
2022-09-21T10:56:15.463Z,32.70
2022-09-21T10:59:13.559Z,32.05
2022-09-21T11:01:47.484Z,31.06
2022-09-21T11:04:39.166Z,30.43
2022-09-21T11:07:20.785Z,29.31
2022-09-21T11:10:05.619Z,28.60
2022-09-21T11:13:11.230Z,28.79
2022-09-21T11:16:02.633Z,30.15
2022-09-21T11:18:46.701Z,30.91
2022-09-21T11:21:25.241Z,30.49
2022-09-21T11:24:28.789Z,29.74
2022-09-21T11:27:18.143Z,28.79
2022-09-21T11:30:07.116Z,28.56
2022-09-21T11:32:40.325Z,29.02
2022-09-21T11:35:17.740Z,28.16
2022-09-21T11:37:50.145Z,28.21
2022-09-21T11:40:43.704Z,28.58
2022-09-21T11:44:01.921Z,28.85
2022-09-21T11:46:47.939Z,29.06
2022-09-21T11:49:51.943Z,30.04
2022-09-21T11:52:51.493Z,30.96
2022-09-21T11:55:32.970Z,31.68
2022-09-21T11:58:31.884Z,32.19
2022-09-21T12:01:12.044Z,31.66
2022-09-21T12:04:10.976Z,32.44
2022-09-21T12:07:10.852Z,33.19
2022-09-21T12:09:49.449Z,32.93
2022-09-21T12:12:43.581Z,33.41
2022-09-21T12:15:48.945Z,33.68
2022-09-21T12:18:41.427Z,33.58
2022-09-21T12:21:34.006Z,34.11
2022-09-21T12:24:12.416Z,34.06
2022-09-21T12:26:51.509Z,33.82
2022-09-21T12:29:47.839Z,33.86
2022-09-21T12:32:37.294Z,34.53
2022-09-21T12:35:12.898Z,35.00
2022-09-21T12:37:52.129Z,34.84
2022-09-21T12:40:28.761Z,35.36
2022-09-21T12:43:13.498Z,35.61
2022-09-21T12:45:45.996Z,35.69
2022-09-21T12:48:41.873Z,35.69
2022-09-21T12:51:22.890Z,35.48
2022-09-21T12:53:52.892Z,36.05
2022-09-21T12:56:31.555Z,35.61
2022-09-21T12:59:25.720Z,35.39
2022-09-21T13:02:02.904Z,34.48
2022-09-21T13:05:01.153Z,34.19
2022-09-21T13:07:52.092Z,34.20
2022-09-21T13:10:28.127Z,33.54
2022-09-21T13:12:59.261Z,33.35
2022-09-21T13:15:31.697Z,33.11
2022-09-21T13:18:21.209Z,32.82
2022-09-21T13:20:48.756Z,32.26
2022-09-21T13:23:21.027Z,31.64
2022-09-21T13:25:50.338Z,31.37
2022-09-21T13:28:16.718Z,31.22
2022-09-21T13:30:48.931Z,30.22
2022-09-21T13:33:18.086Z,29.74
2022-09-21T13:35:50.691Z,29.25
2022-09-21T13:38:34.414Z,28.98
2022-09-21T13:41:19.182Z,29.61
2022-09-21T13:43:49.389Z,29.88
2022-09-21T13:46:34.593Z,29.29
2022-09-21T13:49:16.170Z,29.24
2022-09-21T13:51:52.200Z,28.88
2022-09-21T13:54:26.268Z,29.16
2022-09-21T13:57:09.198Z,28.01
2022-09-21T13:59:38.756Z,27.73
2022-09-21T14:02:55.514Z,28.07
2022-09-21T14:05:46.934Z,28.97
2022-09-21T14:08:16.296Z,29.16
2022-09-21T14:11:03.090Z,29.21
2022-09-21T14:13:43.863Z,29.82
2022-09-21T14:16:28.822Z,30.10
2022-09-21T14:18:56.358Z,30.56
2022-09-21T14:21:23.306Z,30.97
2022-09-21T14:24:34.097Z,31.32
2022-09-21T14:27:14.832Z,30.96
2022-09-21T14:30:07.348Z,30.57
2022-09-21T14:32:47.198Z,30.26
2022-09-21T14:35:20.243Z,29.92
2022-09-21T14:37:53.188Z,29.91
2022-09-21T14:40:27.243Z,29.61
2022-09-21T14:42:55.477Z,29.72
2022-09-21T14:45:46.338Z,30.21
2022-09-21T14:48:38.428Z,30.92
2022-09-21T14:51:27.060Z,30.72
2022-09-21T14:54:20.092Z,31.14
2022-09-21T14:57:17.015Z,31.27
2022-09-21T15:00:02.422Z,31.50
2022-09-21T15:02:32.323Z,31.42
2022-09-21T15:05:12.183Z,30.95
2022-09-21T15:08:13.792Z,31.30
2022-09-21T15:11:05.892Z,32.26
2022-09-21T15:14:00.994Z,31.96
2022-09-21T15:16:39.870Z,33.45
2022-09-21T15:19:43.196Z,33.78
2022-09-21T15:22:15.348Z,33.87
2022-09-21T15:24:57.084Z,33.98
2022-09-21T15:27:26.092Z,33.85
2022-09-21T15:29:54.789Z,33.68
2022-09-21T15:32:47.430Z,33.95
2022-09-21T15:35:22.986Z,33.53
2022-09-21T15:37:50.957Z,33.58
2022-09-21T15:40:25.574Z,33.43
2022-09-21T15:43:03.856Z,32.85
2022-09-21T15:45:42.139Z,32.49
2022-09-21T15:48:12.261Z,33.27
2022-09-21T15:50:40.221Z,33.12
2022-09-21T15:53:15.312Z,33.75
2022-09-21T15:55:47.281Z,33.75
2022-09-21T15:58:37.259Z,33.44
2022-09-21T16:01:14.020Z,33.47
2022-09-21T16:03:44.434Z,34.14
2022-09-21T16:06:28.485Z,33.02
2022-09-21T16:08:55.128Z,33.22
2022-09-21T16:11:27.231Z,33.71
2022-09-21T16:14:22.694Z,33.84
2022-09-21T16:17:17.296Z,34.39
2022-09-21T16:19:53.777Z,34.39
2022-09-21T16:22:38.472Z,35.05
2022-09-21T16:25:23.028Z,34.45
2022-09-21T16:28:18.332Z,34.39
2022-09-21T16:30:44.759Z,34.77
2022-09-21T16:33:39.768Z,34.52
2022-09-21T16:36:26.166Z,34.46
2022-09-21T16:38:53.546Z,34.33
2022-09-21T16:41:21.347Z,34.29
2022-09-21T16:43:50.750Z,35.63
2022-09-21T16:46:18.179Z,35.54
2022-09-21T16:48:45.044Z,36.16
2022-09-21T16:51:24.245Z,36.80
2022-09-21T16:53:51.384Z,37.90
2022-09-21T16:56:18.202Z,39.21
2022-09-21T16:58:45.035Z,39.92
2022-09-21T17:01:13.405Z,40.18
2022-09-21T17:03:40.344Z,40.49
2022-09-21T17:06:21.812Z,40.99
2022-09-21T17:08:49.490Z,40.70
2022-09-21T17:11:20.257Z,41.40
2022-09-21T17:13:48.210Z,42.66
2022-09-21T17:16:18.003Z,42.85
2022-09-21T17:18:45.919Z,43.75
2022-09-21T17:21:12.791Z,43.64
2022-09-21T17:23:39.213Z,44.70
2022-09-21T17:26:15.776Z,45.08
2022-09-21T17:28:42.604Z,45.34
2022-09-21T17:31:11.920Z,46.22
2022-09-21T17:33:38.615Z,46.92
2022-09-21T17:36:15.120Z,47.58
2022-09-21T17:38:42.393Z,47.86
2022-09-21T17:41:45.378Z,48.64
2022-09-21T17:44:17.363Z,49.14
2022-09-21T17:46:52.926Z,49.34
2022-09-21T17:49:19.563Z,49.81
2022-09-21T17:52:04.924Z,49.93
2022-09-21T17:54:31.560Z,50.17
2022-09-21T17:57:06.535Z,50.63
2022-09-21T17:59:35.402Z,50.93
2022-09-21T18:02:03.163Z,51.48
2022-09-21T18:04:34.971Z,51.80
2022-09-21T18:07:03.153Z,52.01
2022-09-21T18:09:29.734Z,52.35
2022-09-21T18:12:37.449Z,53.58
2022-09-21T18:15:30.360Z,54.09
2022-09-21T18:18:14.612Z,54.14
2022-09-21T18:20:53.828Z,54.62
2022-09-21T18:24:02.118Z,55.03
2022-09-21T18:26:35.945Z,55.15
2022-09-21T18:29:22.537Z,55.15
2022-09-21T18:32:17.885Z,56.13
2022-09-21T18:34:56.758Z,55.83
2022-09-21T18:37:55.339Z,56.04
2022-09-21T18:40:50.973Z,56.23
2022-09-21T18:43:26.490Z,56.14
2022-09-21T18:46:03.723Z,56.53
2022-09-21T18:48:52.726Z,56.64
2022-09-21T18:51:28.621Z,56.94
2022-09-21T18:54:00.529Z,57.28
2022-09-21T18:56:34.157Z,58.03
2022-09-21T18:59:01.082Z,57.61
2022-09-21T19:01:34.373Z,57.86
2022-09-21T19:04:11.831Z,57.89
2022-09-21T19:06:46.074Z,58.13
2022-09-21T19:09:31.634Z,58.27
2022-09-21T19:12:43.037Z,58.60
2022-09-21T19:15:42.417Z,58.81
2022-09-21T19:18:36.833Z,59.04
2022-09-21T19:21:20.423Z,59.10
2022-09-21T19:24:06.582Z,59.38
2022-09-21T19:26:49.182Z,59.70
2022-09-21T19:29:42.472Z,59.70
2022-09-21T19:32:18.691Z,59.72
2022-09-21T19:34:45.420Z,59.67
2022-09-21T19:37:21.351Z,59.76
2022-09-21T19:39:47.925Z,59.98
2022-09-21T19:42:30.380Z,60.30
2022-09-21T19:45:18.233Z,60.64
2022-09-21T19:47:52.369Z,61.19
2022-09-21T19:50:26.833Z,61.40
2022-09-21T19:53:13.769Z,61.27
2022-09-21T19:56:01.939Z,61.29
2022-09-21T19:58:47.069Z,61.40
2022-09-21T20:01:18.276Z,61.50
2022-09-21T20:03:46.475Z,61.65
2022-09-21T20:06:19.590Z,61.77
2022-09-21T20:09:08.351Z,61.96
2022-09-21T20:11:51.377Z,62.04
2022-09-21T20:14:57.099Z,62.21
2022-09-21T20:17:47.732Z,62.49
2022-09-21T20:20:25.393Z,62.40
2022-09-21T20:22:52.909Z,62.52
2022-09-21T20:25:36.448Z,62.98
2022-09-21T20:28:04.010Z,62.94
2022-09-21T20:30:33.402Z,63.35
2022-09-21T20:33:13.921Z,63.51
2022-09-21T20:35:42.793Z,63.61
2022-09-21T20:38:10.368Z,63.81
2022-09-21T20:40:37.006Z,63.91
2022-09-21T20:43:04.155Z,63.74
2022-09-21T20:45:32.263Z,63.59
2022-09-21T20:48:12.809Z,63.52
2022-09-21T20:50:41.282Z,63.18
2022-09-21T20:53:08.532Z,62.86
2022-09-21T20:55:35.038Z,63.09
2022-09-21T20:58:01.364Z,63.08
2022-09-21T21:00:28.032Z,63.02
2022-09-21T21:02:57.038Z,63.03
2022-09-21T21:05:24.106Z,63.23
2022-09-21T21:07:51.318Z,63.06
2022-09-21T21:10:19.017Z,63.44
2022-09-21T21:12:45.386Z,63.96
2022-09-21T21:15:13.677Z,64.18
2022-09-21T21:17:41.266Z,63.77
2022-09-21T21:20:09.158Z,64.25
2022-09-21T21:22:36.195Z,64.44
2022-09-21T21:25:02.888Z,64.38
2022-09-21T21:27:29.494Z,64.18
2022-09-21T21:29:56.204Z,64.32
2022-09-21T21:32:25.290Z,64.67
2022-09-21T21:34:52.858Z,64.58
2022-09-21T21:37:21.758Z,64.65
2022-09-21T21:39:48.156Z,64.27
2022-09-21T21:42:15.199Z,64.38
2022-09-21T21:44:41.599Z,64.07
2022-09-21T21:47:34.717Z,64.08
2022-09-21T21:49:54.302Z,64.04
2022-09-21T21:52:21.061Z,64.25
2022-09-21T21:54:47.489Z,64.41
2022-09-21T21:57:14.836Z,64.38
2022-09-21T21:59:43.057Z,64.17
2022-09-21T22:02:10.379Z,64.56
2022-09-21T22:04:36.820Z,64.52
2022-09-21T22:07:04.042Z,64.93
2022-09-21T22:09:30.398Z,64.84
2022-09-21T22:11:58.211Z,64.61
2022-09-21T22:14:24.592Z,64.70
2022-09-21T22:16:51.343Z,64.42
2022-09-21T22:19:17.913Z,64.03
2022-09-21T22:21:53.267Z,64.24
2022-09-21T22:24:21.292Z,64.35
2022-09-21T22:26:48.528Z,64.49
2022-09-21T22:29:18.900Z,64.49
2022-09-21T22:31:48.203Z,64.76
2022-09-21T22:34:15.491Z,64.85
2022-09-21T22:36:43.700Z,64.93
2022-09-21T22:39:19.190Z,64.89
2022-09-21T22:41:45.517Z,64.78
2022-09-21T22:44:11.892Z,65.10
2022-09-21T22:46:39.237Z,65.16
2022-09-21T22:49:11.369Z,65.63
2022-09-21T22:51:37.987Z,66.55
2022-09-21T22:54:04.931Z,66.72
2022-09-21T22:56:33.032Z,67.24
2022-09-21T22:59:01.905Z,67.36
2022-09-21T23:01:34.881Z,67.53
2022-09-21T23:04:10.424Z,67.83
2022-09-21T23:06:39.081Z,67.56
2022-09-21T23:09:08.394Z,67.64
2022-09-21T23:11:43.926Z,67.71
2022-09-21T23:14:12.810Z,67.16
2022-09-21T23:16:39.360Z,67.42
2022-09-21T23:19:05.981Z,67.74
2022-09-21T23:21:32.483Z,68.63
2022-09-21T23:24:01.044Z,68.58
2022-09-21T23:26:30.036Z,69.10
2022-09-21T23:28:58.853Z,69.50
2022-09-21T23:31:26.771Z,69.85
2022-09-21T23:33:55.977Z,69.97
2022-09-21T23:36:26.344Z,69.71
2022-09-21T23:38:53.001Z,69.79
2022-09-21T23:41:23.957Z,69.16
2022-09-21T23:43:51.350Z,68.88
2022-09-21T23:46:23.090Z,68.93
2022-09-21T23:48:49.709Z,68.94
2022-09-21T23:51:16.571Z,69.08
2022-09-21T23:53:43.043Z,69.11
2022-09-21T23:56:13.473Z,69.52
2022-09-21T23:58:40.237Z,69.35
